Time;durP1;ratioP1;P1;durP2;ratioP2;P2;SDS_P1;SDS_P2;PMS_P1;PMS_P2;Temp;Humidity;BMP_temperature;BMP_pressure;BME280_temperature;BME280_humidity;BME280_pressure;Samples;Min_cycle;Max_cycle;Signal;HPM_P1;HPM_P2
2021/10/11 00:00:42;;;;;;;;;;;9.70;50.80;;;;;;4340397;33;20447;-38
2021/10/11 00:03:08;;;;;;;;;;;9.70;50.70;;;;;;4340843;33;19974;-39
2021/10/11 00:05:34;;;;;;;;;;;9.70;50.60;;;;;;4340759;33;20124;-38
2021/10/11 00:08:01;;;;;;;;;;;9.70;50.70;;;;;;4340567;33;19970;-38
2021/10/11 00:10:27;;;;;;;;;;;9.70;50.60;;;;;;4340828;33;19975;-38
2021/10/11 00:12:54;;;;;;;;;;;9.70;50.60;;;;;;4341027;33;19994;-38
2021/10/11 00:15:21;;;;;;;;;;;9.70;50.70;;;;;;4343017;32;19967;-38
2021/10/11 00:17:47;;;;;;;;;;;9.70;50.70;;;;;;4357682;32;19989;-38
2021/10/11 00:20:14;;;;;;;;;;;9.70;50.80;;;;;;4358439;32;19970;-38
2021/10/11 00:22:40;;;;;;;;;;;9.70;50.70;;;;;;4358816;32;19971;-37
2021/10/11 00:25:07;;;;;;;;;;;9.70;51.00;;;;;;4361742;32;19974;-39
2021/10/11 00:27:33;;;;;;;;;;;9.70;51.40;;;;;;4361965;32;19958;-38
2021/10/11 00:29:59;;;;;;;;;;;9.70;51.40;;;;;;4361913;32;19977;-38
2021/10/11 00:32:26;;;;;;;;;;;9.80;51.20;;;;;;4361691;32;19970;-39
2021/10/11 00:34:52;;;;;;;;;;;9.80;51.20;;;;;;4361538;32;20065;-37
2021/10/11 00:37:18;;;;;;;;;;;9.90;51.20;;;;;;4361462;32;20131;-38
2021/10/11 00:39:44;;;;;;;;;;;9.90;51.00;;;;;;4359571;32;19970;-39
2021/10/11 00:42:11;;;;;;;;;;;10.00;51.00;;;;;;4361048;32;20476;-38
2021/10/11 00:44:37;;;;;;;;;;;10.10;51.00;;;;;;4361322;32;20012;-38
2021/10/11 00:47:03;;;;;;;;;;;10.10;51.00;;;;;;4331824;33;19990;-38
2021/10/11 00:49:29;;;;;;;;;;;10.10;51.20;;;;;;4329335;33;19978;-37
2021/10/11 00:51:56;;;;;;;;;;;10.20;51.70;;;;;;4329288;33;20435;-38
2021/10/11 00:54:25;;;;;;;;;;;10.30;51.80;;;;;;4329253;33;19979;-38
2021/10/11 00:56:51;;;;;;;;;;;10.30;51.70;;;;;;4317320;33;19975;-38
2021/10/11 00:59:17;;;;;;;;;;;10.40;51.60;;;;;;4328776;33;19963;-38
2021/10/11 01:01:43;;;;;;;;;;;10.50;51.60;;;;;;4329167;33;20018;-36
2021/10/11 01:04:10;;;;;;;;;;;10.50;51.60;;;;;;4328940;33;19983;-38
2021/10/11 01:06:37;;;;;;;;;;;10.60;51.80;;;;;;4328825;33;19979;-38
2021/10/11 01:09:04;;;;;;;;;;;10.70;52.00;;;;;;4329052;33;20000;-38
2021/10/11 01:11:31;;;;;;;;;;;10.80;52.10;;;;;;4316833;33;20038;-38
2021/10/11 01:13:57;;;;;;;;;;;10.90;52.20;;;;;;4329321;33;19971;-37
2021/10/11 01:16:23;;;;;;;;;;;11.00;52.00;;;;;;4328901;33;19975;-38
2021/10/11 01:18:49;;;;;;;;;;;11.10;51.90;;;;;;4328610;33;19991;-37
2021/10/11 01:21:15;;;;;;;;;;;11.20;51.70;;;;;;4329062;33;19979;-38
2021/10/11 01:23:42;;;;;;;;;;;11.20;51.70;;;;;;4331562;33;20560;-37
2021/10/11 01:26:08;;;;;;;;;;;11.30;51.60;;;;;;4345707;32;20434;-38
2021/10/11 01:28:34;;;;;;;;;;;11.40;51.50;;;;;;4345644;32;19966;-38
2021/10/11 01:31:00;;;;;;;;;;;11.50;51.50;;;;;;4345987;32;19978;-38
2021/10/11 01:33:26;;;;;;;;;;;11.50;51.60;;;;;;4344504;33;19992;-38
2021/10/11 01:35:52;;;;;;;;;;;11.60;51.40;;;;;;4345612;32;19991;-38
2021/10/11 01:38:19;;;;;;;;;;;11.60;51.50;;;;;;4346068;32;19970;-38
2021/10/11 01:40:45;;;;;;;;;;;11.70;51.60;;;;;;4345283;32;19967;-38
2021/10/11 01:43:11;;;;;;;;;;;11.80;51.60;;;;;;4345428;32;19975;-38
2021/10/11 01:45:37;;;;;;;;;;;11.90;51.60;;;;;;4348935;32;19970;-38
2021/10/11 01:48:04;;;;;;;;;;;12.00;51.50;;;;;;4360564;32;19958;-37
2021/10/11 01:50:31;;;;;;;;;;;12.00;51.50;;;;;;4359232;32;20421;-38
2021/10/11 01:52:57;;;;;;;;;;;12.10;51.50;;;;;;4360381;32;20375;-38
2021/10/11 01:55:24;;;;;;;;;;;12.20;51.50;;;;;;4359237;32;19986;-39
2021/10/11 01:57:50;;;;;;;;;;;12.20;51.60;;;;;;4358461;32;20169;-38
2021/10/11 02:00:16;;;;;;;;;;;12.30;51.60;;;;;;4360536;32;19966;-37
2021/10/11 02:02:42;;;;;;;;;;;12.30;51.60;;;;;;4358761;32;19974;-38
2021/10/11 02:05:09;;;;;;;;;;;12.40;51.60;;;;;;4359980;32;19988;-37
2021/10/11 02:07:35;;;;;;;;;;;12.40;51.50;;;;;;4359898;32;20111;-39
2021/10/11 02:10:05;;;;;;;;;;;12.50;51.50;;;;;;4360372;32;20459;-38
2021/10/11 02:12:32;;;;;;;;;;;12.50;51.50;;;;;;4360111;32;19989;-38
2021/10/11 02:14:58;;;;;;;;;;;12.50;51.40;;;;;;4360335;32;19970;-38
2021/10/11 02:17:24;;;;;;;;;;;12.60;51.50;;;;;;4359852;32;20394;-38
2021/10/11 02:19:50;;;;;;;;;;;12.60;51.60;;;;;;4367051;32;19966;-37
2021/10/11 02:22:16;;;;;;;;;;;12.70;51.70;;;;;;4375201;32;20057;-37
2021/10/11 02:24:43;;;;;;;;;;;12.70;51.80;;;;;;4375161;32;19954;-38
2021/10/11 02:27:10;;;;;;;;;;;12.80;51.80;;;;;;4374683;32;19981;-38
2021/10/11 02:29:36;;;;;;;;;;;12.80;51.90;;;;;;4374631;32;19977;-37
2021/10/11 02:32:02;;;;;;;;;;;12.90;52.00;;;;;;4375352;32;19962;-38
2021/10/11 02:34:28;;;;;;;;;;;12.90;52.00;;;;;;4374419;32;20394;-37
2021/10/11 02:36:54;;;;;;;;;;;13.00;52.00;;;;;;4374618;32;20070;-36
2021/10/11 02:39:21;;;;;;;;;;;13.10;52.10;;;;;;4374696;32;20048;-39
2021/10/11 02:41:47;;;;;;;;;;;13.10;52.00;;;;;;4360686;32;19974;-38
2021/10/11 02:44:13;;;;;;;;;;;13.20;52.10;;;;;;4360802;32;19977;-37
2021/10/11 02:46:39;;;;;;;;;;;13.20;52.10;;;;;;4364167;32;19966;-39
2021/10/11 02:49:06;;;;;;;;;;;13.20;52.00;;;;;;4312688;33;19981;-38
2021/10/11 02:51:32;;;;;;;;;;;13.30;52.10;;;;;;4300912;33;20037;-38
2021/10/11 02:53:58;;;;;;;;;;;13.30;52.00;;;;;;4313060;33;19972;-37
2021/10/11 02:56:24;;;;;;;;;;;13.40;52.00;;;;;;4312928;33;20052;-37
2021/10/11 02:58:50;;;;;;;;;;;13.40;52.70;;;;;;4312643;33;19983;-38
2021/10/11 03:01:17;;;;;;;;;;;13.40;52.00;;;;;;4312719;33;19995;-38
2021/10/11 03:03:43;;;;;;;;;;;13.50;52.00;;;;;;4312543;33;19971;-38
2021/10/11 03:06:09;;;;;;;;;;;13.50;51.90;;;;;;4312859;33;19982;-37
2021/10/11 03:08:35;;;;;;;;;;;13.50;51.90;;;;;;4312373;33;20070;-37
2021/10/11 03:11:02;;;;;;;;;;;13.50;51.90;;;;;;4312455;33;20027;-37
2021/10/11 03:13:28;;;;;;;;;;;13.60;52.00;;;;;;4312472;33;20551;-38
2021/10/11 03:15:54;;;;;;;;;;;13.60;51.90;;;;;;4300545;33;19967;-37
2021/10/11 03:18:20;;;;;;;;;;;13.60;52.00;;;;;;4312320;33;20001;-37
2021/10/11 03:20:47;;;;;;;;;;;13.70;52.00;;;;;;4348787;32;20418;-38
2021/10/11 03:23:13;;;;;;;;;;;13.70;52.00;;;;;;4359071;32;19978;-38
2021/10/11 03:25:39;;;;;;;;;;;13.80;52.00;;;;;;4359127;32;19965;-38
2021/10/11 03:28:05;;;;;;;;;;;13.80;52.00;;;;;;4359285;32;19996;-38
2021/10/11 03:30:32;;;;;;;;;;;13.90;52.00;;;;;;4359453;32;20040;-38
2021/10/11 03:32:59;;;;;;;;;;;13.90;52.00;;;;;;4358898;32;20349;-38
2021/10/11 03:35:25;;;;;;;;;;;13.90;51.90;;;;;;4358703;32;20362;-38
2021/10/11 03:37:51;;;;;;;;;;;14.00;52.00;;;;;;4358952;32;19969;-39
2021/10/11 03:40:17;;;;;;;;;;;14.00;52.60;;;;;;4358663;32;20126;-38
2021/10/11 03:42:44;;;;;;;;;;;14.10;52.00;;;;;;4358923;32;19967;-38
2021/10/11 03:45:11;;;;;;;;;;;14.10;52.00;;;;;;4345129;32;19970;-38
2021/10/11 03:47:38;;;;;;;;;;;14.20;52.00;;;;;;4373851;32;19985;-38
2021/10/11 03:50:05;;;;;;;;;;;14.30;51.90;;;;;;4359860;32;20040;-38
2021/10/11 03:52:32;;;;;;;;;;;14.30;52.00;;;;;;4373573;32;19981;-38
2021/10/11 03:54:58;;;;;;;;;;;14.30;51.80;;;;;;4373631;32;19958;-38
2021/10/11 03:57:24;;;;;;;;;;;14.40;51.80;;;;;;4373722;32;20459;-38
2021/10/11 03:59:50;;;;;;;;;;;14.40;52.00;;;;;;4373326;32;19966;-38
2021/10/11 04:02:17;;;;;;;;;;;14.50;52.10;;;;;;4326409;33;19974;-38
2021/10/11 04:04:43;;;;;;;;;;;14.60;52.20;;;;;;4326450;33;20053;-37
2021/10/11 04:07:12;;;;;;;;;;;14.60;52.20;;;;;;4314126;33;20046;-38
2021/10/11 04:09:39;;;;;;;;;;;14.70;52.30;;;;;;4326590;33;19971;-38
2021/10/11 04:12:08;;;;;;;;;;;14.80;52.30;;;;;;4326538;33;19978;-38
2021/10/11 04:14:34;;;;;;;;;;;14.90;52.30;;;;;;4326038;33;20007;-38
2021/10/11 04:17:00;;;;;;;;;;;15.00;52.20;;;;;;4326079;33;19976;-38
2021/10/11 04:19:27;;;;;;;;;;;15.10;52.20;;;;;;4326435;33;19978;-37
2021/10/11 04:21:53;;;;;;;;;;;15.20;52.00;;;;;;4326284;33;20007;-38
2021/10/11 04:24:19;;;;;;;;;;;15.40;52.20;;;;;;4326382;33;20001;-38
2021/10/11 04:26:45;;;;;;;;;;;15.50;51.80;;;;;;4326405;33;19970;-38
2021/10/11 04:29:11;;;;;;;;;;;15.60;51.50;;;;;;4326547;33;19963;-39
2021/10/11 04:31:38;;;;;;;;;;;15.70;51.40;;;;;;4314010;33;20420;-38
2021/10/11 04:34:04;;;;;;;;;;;15.80;51.20;;;;;;4352803;32;19962;-38
2021/10/11 04:36:30;;;;;;;;;;;15.90;51.00;;;;;;4325619;33;19993;-38
2021/10/11 04:38:56;;;;;;;;;;;16.00;50.90;;;;;;4326708;33;19983;-38
2021/10/11 04:41:22;;;;;;;;;;;16.10;50.70;;;;;;4326400;33;19974;-38
2021/10/11 04:43:49;;;;;;;;;;;16.20;50.60;;;;;;4326477;33;20033;-37
2021/10/11 04:46:16;;;;;;;;;;;16.30;50.50;;;;;;4326103;33;20060;-38
2021/10/11 04:48:42;;;;;;;;;;;16.40;50.30;;;;;;4326515;33;19963;-37
2021/10/11 04:51:08;;;;;;;;;;;16.50;50.10;;;;;;4326223;33;20065;-38
2021/10/11 04:53:34;;;;;;;;;;;16.60;50.10;;;;;;4326154;33;19998;-38
2021/10/11 04:56:01;;;;;;;;;;;16.70;49.90;;;;;;4326615;33;19978;-37
2021/10/11 04:58:27;;;;;;;;;;;16.70;49.50;;;;;;4326225;33;20050;-38
2021/10/11 05:00:53;;;;;;;;;;;16.80;49.30;;;;;;4326041;33;20408;-37
2021/10/11 05:03:19;;;;;;;;;;;16.90;49.20;;;;;;4326207;33;20024;-39
2021/10/11 05:05:45;;;;;;;;;;;17.00;49.20;;;;;;4326424;33;19979;-37
2021/10/11 05:08:11;;;;;;;;;;;17.10;49.10;;;;;;4351396;32;20427;-37
2021/10/11 05:10:37;;;;;;;;;;;17.10;48.80;;;;;;4360869;32;20200;-37
2021/10/11 05:13:04;;;;;;;;;;;17.20;48.70;;;;;;4360628;32;20375;-37
2021/10/11 05:15:30;;;;;;;;;;;17.30;48.40;;;;;;4360610;32;19962;-38
2021/10/11 05:17:56;;;;;;;;;;;17.50;48.30;;;;;;4360934;32;19978;-38
2021/10/11 05:20:24;;;;;;;;;;;17.50;48.10;;;;;;4371128;32;19977;-38
2021/10/11 05:22:51;;;;;;;;;;;17.60;47.70;;;;;;4375300;32;20424;-38
2021/10/11 05:25:17;;;;;;;;;;;17.70;47.60;;;;;;4375600;32;19977;-38
2021/10/11 05:27:43;;;;;;;;;;;17.70;47.50;;;;;;4376095;32;19966;-39
2021/10/11 05:30:09;;;;;;;;;;;17.80;47.30;;;;;;4375435;32;19962;-38
2021/10/11 05:32:36;;;;;;;;;;;17.90;47.00;;;;;;4376049;32;20024;-37
2021/10/11 05:35:02;;;;;;;;;;;18.00;46.90;;;;;;4375300;32;19980;-37
2021/10/11 05:37:29;;;;;;;;;;;18.10;47.50;;;;;;4375274;32;20051;-38
2021/10/11 05:39:55;;;;;;;;;;;18.20;46.70;;;;;;4375189;32;20375;-39
2021/10/11 05:42:23;;;;;;;;;;;18.30;46.50;;;;;;4361371;32;20055;-39
2021/10/11 05:44:49;;;;;;;;;;;18.40;45.80;;;;;;4375147;32;20054;-38
2021/10/11 05:47:15;;;;;;;;;;;18.30;45.40;;;;;;4361951;32;19982;-37
2021/10/11 05:49:41;;;;;;;;;;;18.40;45.60;;;;;;4360088;32;19959;-38
2021/10/11 05:52:08;;;;;;;;;;;18.40;45.60;;;;;;4360127;32;20031;-37
2021/10/11 05:54:34;;;;;;;;;;;18.50;45.40;;;;;;4359813;32;20115;-38
2021/10/11 05:57:00;;;;;;;;;;;18.60;45.30;;;;;;4360033;32;19978;-39
2021/10/11 05:59:26;;;;;;;;;;;18.70;45.10;;;;;;4360151;32;20399;-37
2021/10/11 06:01:53;;;;;;;;;;;18.70;44.90;;;;;;4359944;32;20419;-37
2021/10/11 06:04:19;;;;;;;;;;;18.80;45.50;;;;;;4359699;32;20075;-37
2021/10/11 06:06:45;;;;;;;;;;;18.90;44.70;;;;;;4360541;32;20077;-38
2021/10/11 06:09:11;;;;;;;;;;;19.00;44.70;;;;;;4360014;32;19982;-38
2021/10/11 06:11:39;;;;;;;;;;;19.20;44.50;;;;;;4313381;33;19986;-39
2021/10/11 06:14:05;;;;;;;;;;;19.30;44.20;;;;;;4312862;33;20070;-38
2021/10/11 06:16:31;;;;;;;;;;;19.40;43.90;;;;;;4312986;33;20046;-38
2021/10/11 06:18:57;;;;;;;;;;;19.60;43.80;;;;;;4312795;33;19967;-38
2021/10/11 06:21:24;;;;;;;;;;;19.70;43.60;;;;;;4311917;33;19990;-38
2021/10/11 06:23:51;;;;;;;;;;;19.80;43.30;;;;;;4301178;33;20588;-38
2021/10/11 06:26:18;;;;;;;;;;;19.90;43.00;;;;;;4312986;33;20185;-38
2021/10/11 06:28:44;;;;;;;;;;;19.90;42.70;;;;;;4313095;33;20449;-38
2021/10/11 06:31:10;;;;;;;;;;;19.90;42.60;;;;;;4313022;33;19968;-38
2021/10/11 06:33:36;;;;;;;;;;;20.00;42.50;;;;;;4313609;33;20497;-37
2021/10/11 06:36:03;;;;;;;;;;;20.00;42.30;;;;;;4312889;33;19967;-38
2021/10/11 06:38:30;;;;;;;;;;;20.00;42.10;;;;;;4312599;33;19971;-38
2021/10/11 06:40:56;;;;;;;;;;;20.00;41.70;;;;;;4312817;33;19975;-38
2021/10/11 06:43:22;;;;;;;;;;;20.00;41.70;;;;;;4350867;32;19954;-38
2021/10/11 06:45:49;;;;;;;;;;;20.00;41.70;;;;;;4363762;32;19972;-38
2021/10/11 06:48:17;;;;;;;;;;;20.00;41.80;;;;;;4374645;32;20386;-38
2021/10/11 06:50:44;;;;;;;;;;;20.10;41.70;;;;;;4374345;32;19962;-38
2021/10/11 06:53:11;;;;;;;;;;;20.20;41.60;;;;;;4374211;32;20433;-37
2021/10/11 06:55:37;;;;;;;;;;;20.30;41.40;;;;;;4374149;32;19963;-38
2021/10/11 06:58:03;;;;;;;;;;;20.40;41.20;;;;;;4348234;32;19969;-37
2021/10/11 07:00:30;;;;;;;;;;;20.40;41.20;;;;;;4360237;32;20014;-37
2021/10/11 07:02:56;;;;;;;;;;;20.50;40.80;;;;;;4374110;32;19966;-37
2021/10/11 07:05:22;;;;;;;;;;;20.50;40.60;;;;;;4341892;33;19978;-38
2021/10/11 07:07:48;;;;;;;;;;;20.50;40.40;;;;;;4342357;33;20070;-37
2021/10/11 07:10:15;;;;;;;;;;;20.50;40.40;;;;;;4341855;33;19965;-37
2021/10/11 07:12:41;;;;;;;;;;;20.60;40.40;;;;;;4342116;33;19975;-36
2021/10/11 07:15:07;;;;;;;;;;;20.60;40.20;;;;;;4341592;33;20044;-38
2021/10/11 07:17:33;;;;;;;;;;;20.60;40.20;;;;;;4341825;33;20025;-37
2021/10/11 07:20:00;;;;;;;;;;;20.70;40.20;;;;;;4341607;33;20076;-37
2021/10/11 07:22:26;;;;;;;;;;;20.80;40.20;;;;;;4341738;33;20533;-41
2021/10/11 07:24:52;;;;;;;;;;;20.90;40.00;;;;;;4342029;33;19986;-37
2021/10/11 07:27:18;;;;;;;;;;;21.00;39.80;;;;;;4341599;33;20043;-37
2021/10/11 07:29:47;;;;;;;;;;;21.20;39.70;;;;;;4341927;33;20445;-36
2021/10/11 07:32:13;;;;;;;;;;;21.40;39.60;;;;;;4341104;32;19967;-38
2021/10/11 07:34:40;;;;;;;;;;;21.60;39.00;;;;;;4341765;33;20106;-37
2021/10/11 07:37:06;;;;;;;;;;;21.80;38.50;;;;;;4341687;33;19974;-38
2021/10/11 07:39:32;;;;;;;;;;;22.00;38.10;;;;;;4341527;33;19978;-37
2021/10/11 07:42:00;;;;;;;;;;;22.30;37.20;;;;;;4346421;32;20377;-37
2021/10/11 07:44:27;;;;;;;;;;;22.50;36.70;;;;;;4373324;32;20053;-37
2021/10/11 07:46:54;;;;;;;;;;;22.80;36.70;;;;;;4362125;32;19978;-37
2021/10/11 07:49:21;;;;;;;;;;;23.00;36.30;;;;;;4358906;32;20055;-38
2021/10/11 07:51:50;;;;;;;;;;;23.10;36.20;;;;;;4358938;32;20058;-37
2021/10/11 07:54:18;;;;;;;;;;;23.20;36.10;;;;;;4358565;32;20046;-38
2021/10/11 07:56:44;;;;;;;;;;;23.30;36.10;;;;;;4358706;32;20050;-37
2021/10/11 07:59:10;;;;;;;;;;;23.40;35.80;;;;;;4311588;33;20563;-38
2021/10/11 08:01:37;;;;;;;;;;;23.60;35.60;;;;;;4311724;33;19975;-38
2021/10/11 08:04:03;;;;;;;;;;;23.80;35.40;;;;;;4311521;33;19991;-39
2021/10/11 08:06:31;;;;;;;;;;;24.00;35.20;;;;;;4299660;33;20447;-38
2021/10/11 08:08:57;;;;;;;;;;;24.10;34.80;;;;;;4311416;33;19970;-39
2021/10/11 08:11:23;;;;;;;;;;;24.20;34.50;;;;;;4311636;33;20006;-37
2021/10/11 08:13:49;;;;;;;;;;;24.20;33.30;;;;;;4312325;33;19974;-38
2021/10/11 08:16:15;;;;;;;;;;;24.10;33.00;;;;;;4311783;33;20150;-36
2021/10/11 08:18:42;;;;;;;;;;;24.10;33.40;;;;;;4299862;33;20002;-38
2021/10/11 08:21:08;;;;;;;;;;;24.20;33.60;;;;;;4311361;33;19968;-39
2021/10/11 08:23:41;;;;;;;;;;;24.30;33.50;;;;;;4311553;33;20065;-38
2021/10/11 08:26:10;;;;;;;;;;;24.50;33.40;;;;;;4311732;33;20488;-38
2021/10/11 08:28:39;;;;;;;;;;;24.60;33.10;;;;;;4311236;33;19995;-38
2021/10/11 08:31:05;;;;;;;;;;;24.70;32.60;;;;;;4312385;33;20067;-38
2021/10/11 08:33:32;;;;;;;;;;;24.80;32.40;;;;;;4313912;33;19990;-38
2021/10/11 08:36:01;;;;;;;;;;;24.90;32.20;;;;;;4326578;33;19998;-38
2021/10/11 08:38:27;;;;;;;;;;;24.90;32.00;;;;;;4326155;33;20056;-39
2021/10/11 08:40:54;;;;;;;;;;;25.10;31.90;;;;;;4326532;33;20427;-37
2021/10/11 08:43:22;;;;;;;;;;;25.30;31.80;;;;;;4354685;32;19963;-38
2021/10/11 08:45:49;;;;;;;;;;;25.50;31.50;;;;;;4364820;32;20428;-38
2021/10/11 08:48:15;;;;;;;;;;;25.50;30.40;;;;;;4375975;32;20436;-38
2021/10/11 08:50:42;;;;;;;;;;;25.40;30.00;;;;;;4376201;32;19978;-36
2021/10/11 08:53:11;;;;;;;;;;;25.20;30.00;;;;;;4375947;32;20391;-37
2021/10/11 08:55:38;;;;;;;;;;;25.20;30.10;;;;;;4376070;32;20038;-38
2021/10/11 08:58:07;;;;;;;;;;;25.10;30.00;;;;;;4362150;32;19996;-38
2021/10/11 09:00:38;;;;;;;;;;;25.10;29.80;;;;;;4375984;32;19997;-38
2021/10/11 09:03:04;;;;;;;;;;;25.00;30.00;;;;;;4376009;32;19974;-37
2021/10/11 09:05:36;;;;;;;;;;;24.90;29.80;;;;;;4375930;32;19961;-38
2021/10/11 09:08:11;;;;;;;;;;;24.90;30.00;;;;;;4375922;32;19982;-37
2021/10/11 09:11:06;;;;;;;;;;;25.10;30.40;;;;;;4375604;32;19969;-37
2021/10/11 09:13:38;;;;;;;;;;;25.50;30.30;;;;;;4375766;32;19985;-37
2021/10/11 09:16:10;;;;;;;;;;;25.80;30.00;;;;;;4375721;32;20039;-38
2021/10/11 09:18:39;;;;;;;;;;;26.10;29.90;;;;;;4375548;32;20006;-38
2021/10/11 09:21:06;;;;;;;;;;;26.30;29.70;;;;;;4375574;32;19982;-37
2021/10/11 09:23:32;;;;;;;;;;;26.50;29.60;;;;;;4375718;32;20449;-38
2021/10/11 09:25:59;;;;;;;;;;;26.50;29.50;;;;;;4375999;32;20417;-36
2021/10/11 09:28:26;;;;;;;;;;;26.60;29.30;;;;;;4361692;32;19981;-37
2021/10/11 09:30:53;;;;;;;;;;;26.50;29.30;;;;;;4361878;32;20153;-37
2021/10/11 09:33:23;;;;;;;;;;;26.20;29.00;;;;;;4375825;32;20566;-39
2021/10/11 09:35:51;;;;;;;;;;;25.80;29.10;;;;;;4375453;32;20009;-38
2021/10/11 09:38:25;;;;;;;;;;;25.50;29.50;;;;;;4375130;32;20374;-38
2021/10/11 09:40:54;;;;;;;;;;;25.20;29.70;;;;;;4375464;32;19974;-37
2021/10/11 09:43:22;;;;;;;;;;;25.10;30.00;;;;;;4361371;32;20349;-37
2021/10/11 09:45:48;;;;;;;;;;;25.00;30.00;;;;;;4356963;32;19959;-37
2021/10/11 09:48:15;;;;;;;;;;;24.90;30.20;;;;;;4360796;32;19993;-37
2021/10/11 09:50:41;;;;;;;;;;;24.80;29.90;;;;;;4360305;32;19978;-37
2021/10/11 09:53:13;;;;;;;;;;;24.60;29.70;;;;;;4346340;32;20465;-37
2021/10/11 09:55:41;;;;;;;;;;;24.30;29.90;;;;;;4360329;32;19955;-38
2021/10/11 09:58:11;;;;;;;;;;;24.10;30.30;;;;;;4346830;32;19963;-37
2021/10/11 10:00:42;;;;;;;;;;;24.00;30.30;;;;;;4360568;32;20155;-38
2021/10/11 10:03:12;;;;;;;;;;;23.90;30.50;;;;;;4360040;32;19962;-37
2021/10/11 10:05:40;;;;;;;;;;;23.90;30.20;;;;;;4359869;32;19977;-37
2021/10/11 10:08:07;;;;;;;;;;;23.80;30.00;;;;;;4345979;32;20042;-36
2021/10/11 10:10:34;;;;;;;;;;;23.60;30.00;;;;;;4360180;32;19974;-37
2021/10/11 10:13:00;;;;;;;;;;;23.40;30.00;;;;;;4360312;32;19978;-37
2021/10/11 10:15:27;;;;;;;;;;;23.30;30.20;;;;;;4360028;32;20391;-37
2021/10/11 10:18:07;;;;;;;;;;;23.30;30.30;;;;;;4360127;32;20494;-37
2021/10/11 10:20:35;;;;;;;;;;;23.20;30.40;;;;;;4360018;32;19958;-37
2021/10/11 10:23:02;;;;;;;;;;;23.10;30.50;;;;;;4360417;32;20077;-38
2021/10/11 10:25:28;;;;;;;;;;;23.10;30.60;;;;;;4359929;32;19959;-37
2021/10/11 10:28:10;;;;;;;;;;;23.00;30.50;;;;;;4346170;32;20431;-38
2021/10/11 10:30:37;;;;;;;;;;;23.10;30.60;;;;;;4359726;32;20050;-38
2021/10/11 10:33:07;;;;;;;;;;;23.10;30.50;;;;;;4360038;32;19997;-38
2021/10/11 10:35:37;;;;;;;;;;;23.10;30.40;;;;;;4359706;32;20402;-39
2021/10/11 10:38:13;;;;;;;;;;;23.10;30.40;;;;;;4360089;32;19962;-37
2021/10/11 10:40:40;;;;;;;;;;;23.10;30.50;;;;;;4346982;32;20044;-36
2021/10/11 10:43:12;;;;;;;;;;;23.30;30.40;;;;;;4359314;32;19996;-37
2021/10/11 10:45:39;;;;;;;;;;;23.50;30.30;;;;;;4362928;32;19958;-36
2021/10/11 10:48:25;;;;;;;;;;;23.70;30.20;;;;;;4374487;32;19970;-37
2021/10/11 10:50:57;;;;;;;;;;;23.70;30.00;;;;;;4374493;32;19969;-37
2021/10/11 10:53:28;;;;;;;;;;;23.80;30.00;;;;;;4374030;32;19994;-38
2021/10/11 10:55:54;;;;;;;;;;;23.90;30.00;;;;;;4374571;32;19990;-38
2021/10/11 10:58:21;;;;;;;;;;;24.10;30.00;;;;;;4374270;32;20434;-37
2021/10/11 11:00:47;;;;;;;;;;;24.20;29.90;;;;;;4374253;32;19969;-38
2021/10/11 11:03:15;;;;;;;;;;;24.20;29.70;;;;;;4374175;32;19970;-37
2021/10/11 11:05:42;;;;;;;;;;;24.20;29.90;;;;;;4359743;32;19970;-37
2021/10/11 11:08:08;;;;;;;;;;;24.30;29.70;;;;;;4373882;32;20082;-38
2021/10/11 11:10:38;;;;;;;;;;;24.40;29.50;;;;;;4374297;32;19959;-37
2021/10/11 11:13:14;;;;;;;;;;;24.50;29.50;;;;;;4374355;32;19959;-37
2021/10/11 11:15:42;;;;;;;;;;;24.50;29.30;;;;;;4374017;32;19962;-37
2021/10/11 11:18:10;;;;;;;;;;;24.60;29.30;;;;;;4373982;32;19989;-37
2021/10/11 11:20:38;;;;;;;;;;;24.50;29.30;;;;;;4373475;32;20382;-39
2021/10/11 11:23:15;;;;;;;;;;;24.40;29.30;;;;;;4360427;32;20374;-37
2021/10/11 11:25:43;;;;;;;;;;;24.40;29.40;;;;;;4373644;32;20140;-38
2021/10/11 11:28:11;;;;;;;;;;;24.30;29.40;;;;;;4373870;32;19978;-37
2021/10/11 11:30:37;;;;;;;;;;;24.40;29.50;;;;;;4373795;32;20026;-37
2021/10/11 11:33:08;;;;;;;;;;;24.40;29.50;;;;;;4374044;32;20367;-37
2021/10/11 11:35:37;;;;;;;;;;;24.40;29.50;;;;;;4359790;32;19953;-37
2021/10/11 11:38:05;;;;;;;;;;;24.50;29.50;;;;;;4374051;32;19993;-37
2021/10/11 11:40:34;;;;;;;;;;;24.50;29.50;;;;;;4373703;32;19970;-38
2021/10/11 11:43:00;;;;;;;;;;;24.50;29.50;;;;;;4373836;32;19976;-38
2021/10/11 11:45:47;;;;;;;;;;;24.50;29.50;;;;;;4357264;32;20002;-37
2021/10/11 11:48:16;;;;;;;;;;;24.40;29.60;;;;;;4358747;32;19988;-38
2021/10/11 11:50:42;;;;;;;;;;;24.30;29.60;;;;;;4358975;32;19970;-37
2021/10/11 11:53:13;;;;;;;;;;;24.10;29.80;;;;;;4358876;32;19989;-39
2021/10/11 11:55:39;;;;;;;;;;;24.10;29.90;;;;;;4358745;32;20051;-38
2021/10/11 11:58:15;;;;;;;;;;;24.10;30.00;;;;;;4358462;32;19966;-37
2021/10/11 12:00:50;;;;;;;;;;;24.00;30.00;;;;;;4358660;32;19965;-37
2021/10/11 12:03:17;;;;;;;;;;;23.90;29.90;;;;;;4358433;32;19979;-37
2021/10/11 12:05:44;;;;;;;;;;;23.90;29.90;;;;;;4358521;32;20362;-38
2021/10/11 12:08:10;;;;;;;;;;;23.80;29.90;;;;;;4344391;32;20684;-39
2021/10/11 12:10:36;;;;;;;;;;;23.70;30.00;;;;;;4358427;32;19971;-37
2021/10/11 12:13:04;;;;;;;;;;;23.60;30.00;;;;;;4358779;32;19967;-37
2021/10/11 12:15:31;;;;;;;;;;;23.50;30.00;;;;;;4344176;32;19966;-38
2021/10/11 12:18:05;;;;;;;;;;;23.30;30.80;;;;;;4359175;32;19974;-38
2021/10/11 12:20:48;;;;;;;;;;;23.30;30.30;;;;;;4361405;32;20038;-38
2021/10/11 12:23:15;;;;;;;;;;;23.20;30.40;;;;;;4361782;32;19966;-38
2021/10/11 12:25:42;;;;;;;;;;;23.10;30.50;;;;;;4361371;32;20425;-38
2021/10/11 12:28:18;;;;;;;;;;;23.00;30.70;;;;;;4361760;32;19978;-39
2021/10/11 12:30:46;;;;;;;;;;;22.90;30.90;;;;;;4361499;32;19970;-38
2021/10/11 12:33:18;;;;;;;;;;;22.80;31.20;;;;;;4361735;32;19962;-37
2021/10/11 12:35:46;;;;;;;;;;;22.70;31.30;;;;;;4347837;32;19974;-39
2021/10/11 12:38:14;;;;;;;;;;;22.60;31.50;;;;;;4361332;32;20022;-37
2021/10/11 12:40:41;;;;;;;;;;;22.60;31.60;;;;;;4361231;32;19966;-38
2021/10/11 12:43:12;;;;;;;;;;;22.50;31.70;;;;;;4361317;32;20462;-38
2021/10/11 12:45:39;;;;;;;;;;;22.40;31.80;;;;;;4347350;32;19985;-38
2021/10/11 12:48:05;;;;;;;;;;;22.40;32.00;;;;;;4361416;32;20386;-37
2021/10/11 12:50:31;;;;;;;;;;;22.30;32.10;;;;;;4328859;33;20014;-38
2021/10/11 12:52:58;;;;;;;;;;;22.20;32.20;;;;;;4316799;33;19967;-38
2021/10/11 12:55:25;;;;;;;;;;;22.10;32.20;;;;;;4316927;33;20511;-38
2021/10/11 12:58:08;;;;;;;;;;;22.00;32.40;;;;;;4329031;33;19966;-36
2021/10/11 13:00:35;;;;;;;;;;;22.00;32.50;;;;;;4329170;33;19974;-37
2021/10/11 13:03:02;;;;;;;;;;;22.10;32.60;;;;;;4328275;33;20452;-37
2021/10/11 13:05:28;;;;;;;;;;;22.10;32.50;;;;;;4316331;33;20469;-39
2021/10/11 13:07:54;;;;;;;;;;;22.20;32.50;;;;;;4328767;33;20070;-36
2021/10/11 13:10:20;;;;;;;;;;;22.30;32.30;;;;;;4328717;33;20598;-38
2021/10/11 13:12:47;;;;;;;;;;;22.50;31.90;;;;;;4328738;33;19982;-38
2021/10/11 13:15:13;;;;;;;;;;;22.60;31.80;;;;;;4316414;33;19967;-38
2021/10/11 13:17:39;;;;;;;;;;;22.60;31.50;;;;;;4328393;33;20054;-39
2021/10/11 13:20:06;;;;;;;;;;;22.50;31.30;;;;;;4328211;33;19962;-39
2021/10/11 13:22:32;;;;;;;;;;;22.40;31.30;;;;;;4358554;32;20467;-38
2021/10/11 13:24:58;;;;;;;;;;;22.40;31.50;;;;;;4360245;32;19986;-39
2021/10/11 13:27:25;;;;;;;;;;;22.50;31.50;;;;;;4360598;32;20004;-37
2021/10/11 13:30:21;;;;;;;;;;;22.60;31.50;;;;;;4360191;32;19981;-38
2021/10/11 13:42:16;;;;;;;;;;;22.90;31.30;;;;;;4360507;32;19989;-39
2021/10/11 15:59:38;;;;;;;;;;;17.10;36.90;;;;;;4358250;32;19997;-39
2021/10/11 16:02:16;;;;;;;;;;;17.00;37.00;;;;;;4358265;32;19978;-39
2021/10/11 16:04:42;;;;;;;;;;;16.90;37.10;;;;;;4345853;32;20010;-38
2021/10/11 16:07:08;;;;;;;;;;;16.70;37.30;;;;;;4358339;32;19962;-39
2021/10/11 16:09:36;;;;;;;;;;;16.60;37.40;;;;;;4358345;32;19963;-40
2021/10/11 16:12:02;;;;;;;;;;;16.50;37.50;;;;;;4358745;32;20000;-38
2021/10/11 16:14:28;;;;;;;;;;;16.40;37.80;;;;;;4358857;32;19975;-39
2021/10/11 16:16:54;;;;;;;;;;;16.30;37.90;;;;;;4358120;32;20110;-38
2021/10/11 16:19:21;;;;;;;;;;;16.20;38.10;;;;;;4358432;32;20434;-39
2021/10/11 16:21:47;;;;;;;;;;;16.10;38.30;;;;;;4358072;32;19982;-39
2021/10/11 16:24:13;;;;;;;;;;;16.10;38.60;;;;;;4358027;32;20427;-39
2021/10/11 16:26:41;;;;;;;;;;;16.00;38.80;;;;;;4358688;32;19969;-42
2021/10/11 16:29:07;;;;;;;;;;;15.90;39.20;;;;;;4358417;32;20021;-39
2021/10/11 16:31:33;;;;;;;;;;;15.90;39.60;;;;;;4358272;32;20051;-38
2021/10/11 16:33:59;;;;;;;;;;;15.80;39.90;;;;;;4345191;32;20031;-39
2021/10/11 16:36:26;;;;;;;;;;;15.80;40.20;;;;;;4358658;32;19962;-37
2021/10/11 16:38:52;;;;;;;;;;;15.70;40.30;;;;;;4358603;32;20461;-39
2021/10/11 16:41:18;;;;;;;;;;;15.70;40.60;;;;;;4344391;32;19970;-38
2021/10/11 16:43:44;;;;;;;;;;;15.70;40.80;;;;;;4358423;32;20022;-39